Decoded Metar for LEVC (VALENCIA in SPAIN) (IATA:VLC) | Meteo·Mobile Aviation Weather
aviador You're here:

LEVC Decoded Metar

VALENCIA in SPAIN
Report Time2019-09-17 00:00:00
UTC Time2019-09-17 00:17:02
Flight Rules vfr VFR
Wind280° at 03 kt
W.Decomp.*RWY 30: 2.8 kt HW 1 kt LCW
Visibility9999 m
Phenomena:N/A
Clouds:Few 030 Hf
Expected CloudBase > 800 ft AGL from Temp-Dew spread
CeilingNone
Temp22°C (ISA +7)
Dew Point20°C (88% RH)
QNH1018 hPa
Density Alt1,207 ft
Elevation203 ft
Report Wrong Elevation
Raw Report
LEVC 170000Z 28003KT 9999 FEW030 22/20 Q1018 NOSIG=

Extra information for LEVC:More info

Metar Taf Metar & Taf Last 4 Metars F.Rules Stats Wind Profile Meteogram Temp Stats Airport Information Weather charts Add Link Nearby VenuesMetar ALERT Operation Metar Decoded Social comments

Webcam Valencia